sensor_id;sensor_type;location;lat;lon;timestamp;P1;durP1;ratioP1;P2;durP2;ratioP2
13303;SDS011;6720;51.958;4.540;2024-01-30T00:00:40;14.87;;;13.37;;
13303;SDS011;6720;51.958;4.540;2024-01-30T00:03:06;14.27;;;12.80;;
13303;SDS011;6720;51.958;4.540;2024-01-30T00:05:31;14.63;;;12.93;;
13303;SDS011;6720;51.958;4.540;2024-01-30T00:08:07;14.90;;;13.03;;
13303;SDS011;6720;51.958;4.540;2024-01-30T00:10:54;17.80;;;13.67;;
13303;SDS011;6720;51.958;4.540;2024-01-30T00:13:20;17.77;;;13.60;;
13303;SDS011;6720;51.958;4.540;2024-01-30T00:15:45;14.63;;;12.07;;
13303;SDS011;6720;51.958;4.540;2024-01-30T00:18:11;16.87;;;13.03;;
13303;SDS011;6720;51.958;4.540;2024-01-30T00:20:36;16.30;;;13.43;;
13303;SDS011;6720;51.958;4.540;2024-01-30T00:23:02;14.30;;;12.80;;
13303;SDS011;6720;51.958;4.540;2024-01-30T00:25:27;15.07;;;13.47;;
13303;SDS011;6720;51.958;4.540;2024-01-30T00:27:53;14.80;;;12.27;;
13303;SDS011;6720;51.958;4.540;2024-01-30T00:30:19;15.57;;;12.60;;
13303;SDS011;6720;51.958;4.540;2024-01-30T00:32:45;14.23;;;12.63;;
13303;SDS011;6720;51.958;4.540;2024-01-30T00:35:11;13.27;;;11.83;;
13303;SDS011;6720;51.958;4.540;2024-01-30T00:37:36;13.70;;;12.30;;
13303;SDS011;6720;51.958;4.540;2024-01-30T00:40:01;14.13;;;11.83;;
13303;SDS011;6720;51.958;4.540;2024-01-30T00:42:27;15.37;;;12.40;;
13303;SDS011;6720;51.958;4.540;2024-01-30T00:44:52;14.23;;;12.10;;
13303;SDS011;6720;51.958;4.540;2024-01-30T00:47:18;16.90;;;12.57;;
13303;SDS011;6720;51.958;4.540;2024-01-30T00:49:43;14.50;;;13.00;;
13303;SDS011;6720;51.958;4.540;2024-01-30T00:52:09;13.50;;;12.17;;
13303;SDS011;6720;51.958;4.540;2024-01-30T00:54:35;14.30;;;12.80;;
13303;SDS011;6720;51.958;4.540;2024-01-30T00:57:00;14.80;;;12.73;;
13303;SDS011;6720;51.958;4.540;2024-01-30T00:59:25;15.30;;;12.20;;
13303;SDS011;6720;51.958;4.540;2024-01-30T01:01:51;14.10;;;11.90;;
13303;SDS011;6720;51.958;4.540;2024-01-30T01:04:16;13.70;;;12.03;;
13303;SDS011;6720;51.958;4.540;2024-01-30T01:06:42;15.60;;;11.93;;
13303;SDS011;6720;51.958;4.540;2024-01-30T01:09:09;14.17;;;11.93;;
13303;SDS011;6720;51.958;4.540;2024-01-30T01:11:36;15.30;;;12.50;;
13303;SDS011;6720;51.958;4.540;2024-01-30T01:14:03;13.37;;;11.97;;
13303;SDS011;6720;51.958;4.540;2024-01-30T01:16:28;13.53;;;12.20;;
13303;SDS011;6720;51.958;4.540;2024-01-30T01:18:54;15.50;;;12.90;;
13303;SDS011;6720;51.958;4.540;2024-01-30T01:21:19;15.60;;;12.83;;
13303;SDS011;6720;51.958;4.540;2024-01-30T01:23:44;14.33;;;12.40;;
13303;SDS011;6720;51.958;4.540;2024-01-30T01:26:10;16.37;;;13.13;;
13303;SDS011;6720;51.958;4.540;2024-01-30T01:28:35;13.97;;;12.23;;
13303;SDS011;6720;51.958;4.540;2024-01-30T01:31:01;14.90;;;12.93;;
13303;SDS011;6720;51.958;4.540;2024-01-30T01:33:33;14.60;;;13.20;;
13303;SDS011;6720;51.958;4.540;2024-01-30T01:35:59;16.57;;;14.30;;
13303;SDS011;6720;51.958;4.540;2024-01-30T01:38:27;15.47;;;12.63;;
13303;SDS011;6720;51.958;4.540;2024-01-30T01:40:53;15.20;;;13.37;;
13303;SDS011;6720;51.958;4.540;2024-01-30T01:43:18;16.37;;;13.23;;
13303;SDS011;6720;51.958;4.540;2024-01-30T01:45:44;15.10;;;13.10;;
13303;SDS011;6720;51.958;4.540;2024-01-30T01:48:10;15.60;;;13.37;;
13303;SDS011;6720;51.958;4.540;2024-01-30T01:50:37;14.57;;;13.10;;
13303;SDS011;6720;51.958;4.540;2024-01-30T01:53:03;15.67;;;13.93;;
13303;SDS011;6720;51.958;4.540;2024-01-30T01:55:32;19.63;;;15.93;;
13303;SDS011;6720;51.958;4.540;2024-01-30T01:57:58;23.97;;;19.60;;
13303;SDS011;6720;51.958;4.540;2024-01-30T02:00:23;26.40;;;21.07;;
13303;SDS011;6720;51.958;4.540;2024-01-30T02:02:49;27.43;;;19.83;;
13303;SDS011;6720;51.958;4.540;2024-01-30T02:05:15;21.40;;;17.83;;
13303;SDS011;6720;51.958;4.540;2024-01-30T02:07:41;18.10;;;15.90;;
13303;SDS011;6720;51.958;4.540;2024-01-30T02:10:08;17.73;;;15.70;;
13303;SDS011;6720;51.958;4.540;2024-01-30T02:12:34;19.53;;;15.67;;
13303;SDS011;6720;51.958;4.540;2024-01-30T02:15:00;16.83;;;15.03;;
13303;SDS011;6720;51.958;4.540;2024-01-30T02:17:26;17.07;;;15.20;;
13303;SDS011;6720;51.958;4.540;2024-01-30T02:20:03;17.73;;;14.87;;
13303;SDS011;6720;51.958;4.540;2024-01-30T02:23:07;17.10;;;13.47;;
13303;SDS011;6720;51.958;4.540;2024-01-30T02:36:29;15.60;;;12.93;;
13303;SDS011;6720;51.958;4.540;2024-01-30T02:38:54;14.87;;;12.93;;
13303;SDS011;6720;51.958;4.540;2024-01-30T02:41:19;16.40;;;12.67;;
13303;SDS011;6720;51.958;4.540;2024-01-30T02:43:48;14.27;;;12.13;;
13303;SDS011;6720;51.958;4.540;2024-01-30T02:46:13;15.20;;;12.63;;
13303;SDS011;6720;51.958;4.540;2024-01-30T02:48:38;14.97;;;13.37;;
13303;SDS011;6720;51.958;4.540;2024-01-30T02:51:04;14.90;;;12.60;;
13303;SDS011;6720;51.958;4.540;2024-01-30T02:53:29;14.57;;;13.07;;
13303;SDS011;6720;51.958;4.540;2024-01-30T02:55:55;14.90;;;13.30;;
13303;SDS011;6720;51.958;4.540;2024-01-30T02:58:20;14.47;;;12.80;;
13303;SDS011;6720;51.958;4.540;2024-01-30T03:00:45;15.20;;;13.60;;
13303;SDS011;6720;51.958;4.540;2024-01-30T03:03:11;14.97;;;12.57;;
13303;SDS011;6720;51.958;4.540;2024-01-30T03:05:37;15.17;;;13.57;;
13303;SDS011;6720;51.958;4.540;2024-01-30T03:08:03;15.77;;;13.43;;
13303;SDS011;6720;51.958;4.540;2024-01-30T03:10:29;16.20;;;13.50;;
13303;SDS011;6720;51.958;4.540;2024-01-30T03:12:54;14.40;;;12.90;;
13303;SDS011;6720;51.958;4.540;2024-01-30T03:15:20;18.20;;;13.87;;
13303;SDS011;6720;51.958;4.540;2024-01-30T03:17:45;16.10;;;13.50;;
13303;SDS011;6720;51.958;4.540;2024-01-30T03:20:11;15.20;;;13.50;;
13303;SDS011;6720;51.958;4.540;2024-01-30T03:22:38;16.07;;;13.27;;
13303;SDS011;6720;51.958;4.540;2024-01-30T03:25:04;15.07;;;13.43;;
13303;SDS011;6720;51.958;4.540;2024-01-30T03:27:30;14.30;;;12.77;;
13303;SDS011;6720;51.958;4.540;2024-01-30T03:29:55;15.10;;;12.33;;
13303;SDS011;6720;51.958;4.540;2024-01-30T03:32:20;13.63;;;12.23;;
13303;SDS011;6720;51.958;4.540;2024-01-30T03:34:46;13.30;;;11.90;;
13303;SDS011;6720;51.958;4.540;2024-01-30T03:37:11;14.07;;;11.77;;
13303;SDS011;6720;51.958;4.540;2024-01-30T03:39:37;13.37;;;11.03;;
13303;SDS011;6720;51.958;4.540;2024-01-30T03:42:02;14.37;;;12.60;;
13303;SDS011;6720;51.958;4.540;2024-01-30T03:44:27;15.57;;;11.43;;
13303;SDS011;6720;51.958;4.540;2024-01-30T03:46:53;12.87;;;11.50;;
13303;SDS011;6720;51.958;4.540;2024-01-30T03:49:18;13.67;;;12.33;;
13303;SDS011;6720;51.958;4.540;2024-01-30T03:51:44;16.03;;;12.60;;
13303;SDS011;6720;51.958;4.540;2024-01-30T03:54:09;13.80;;;11.93;;
13303;SDS011;6720;51.958;4.540;2024-01-30T03:56:35;13.47;;;11.87;;
13303;SDS011;6720;51.958;4.540;2024-01-30T03:59:00;14.33;;;12.10;;
13303;SDS011;6720;51.958;4.540;2024-01-30T04:01:27;13.47;;;11.23;;
13303;SDS011;6720;51.958;4.540;2024-01-30T04:03:53;13.57;;;12.17;;
13303;SDS011;6720;51.958;4.540;2024-01-30T04:06:18;13.23;;;11.53;;
13303;SDS011;6720;51.958;4.540;2024-01-30T04:08:44;15.43;;;11.93;;
13303;SDS011;6720;51.958;4.540;2024-01-30T04:11:09;12.67;;;11.37;;
13303;SDS011;6720;51.958;4.540;2024-01-30T04:13:35;15.20;;;12.53;;
13303;SDS011;6720;51.958;4.540;2024-01-30T04:16:01;13.40;;;12.00;;
13303;SDS011;6720;51.958;4.540;2024-01-30T04:18:27;13.70;;;12.10;;
13303;SDS011;6720;51.958;4.540;2024-01-30T04:20:53;14.00;;;11.93;;
13303;SDS011;6720;51.958;4.540;2024-01-30T04:23:20;12.33;;;11.03;;
13303;SDS011;6720;51.958;4.540;2024-01-30T04:25:45;12.63;;;11.33;;
13303;SDS011;6720;51.958;4.540;2024-01-30T04:28:12;15.27;;;12.43;;
13303;SDS011;6720;51.958;4.540;2024-01-30T04:30:38;13.00;;;11.60;;
13303;SDS011;6720;51.958;4.540;2024-01-30T04:33:04;13.17;;;11.90;;
13303;SDS011;6720;51.958;4.540;2024-01-30T04:35:29;13.47;;;11.10;;
13303;SDS011;6720;51.958;4.540;2024-01-30T04:37:55;11.73;;;10.53;;
13303;SDS011;6720;51.958;4.540;2024-01-30T04:40:20;12.57;;;11.27;;
13303;SDS011;6720;51.958;4.540;2024-01-30T04:42:46;12.00;;;10.80;;
13303;SDS011;6720;51.958;4.540;2024-01-30T04:45:11;12.93;;;11.60;;
13303;SDS011;6720;51.958;4.540;2024-01-30T04:47:37;13.67;;;12.03;;
13303;SDS011;6720;51.958;4.540;2024-01-30T04:50:04;12.67;;;10.93;;
13303;SDS011;6720;51.958;4.540;2024-01-30T04:52:31;12.77;;;11.47;;
13303;SDS011;6720;51.958;4.540;2024-01-30T04:54:57;12.47;;;11.17;;
13303;SDS011;6720;51.958;4.540;2024-01-30T04:57:22;12.37;;;11.10;;
13303;SDS011;6720;51.958;4.540;2024-01-30T04:59:48;13.30;;;12.00;;
13303;SDS011;6720;51.958;4.540;2024-01-30T05:02:13;14.17;;;11.60;;
13303;SDS011;6720;51.958;4.540;2024-01-30T05:04:40;14.50;;;11.63;;
13303;SDS011;6720;51.958;4.540;2024-01-30T05:07:06;12.70;;;11.50;;
13303;SDS011;6720;51.958;4.540;2024-01-30T05:09:32;12.53;;;11.23;;
13303;SDS011;6720;51.958;4.540;2024-01-30T05:11:57;13.60;;;11.47;;
13303;SDS011;6720;51.958;4.540;2024-01-30T05:14:23;12.87;;;11.27;;
13303;SDS011;6720;51.958;4.540;2024-01-30T05:16:49;12.77;;;11.47;;
13303;SDS011;6720;51.958;4.540;2024-01-30T05:19:14;13.90;;;11.60;;
13303;SDS011;6720;51.958;4.540;2024-01-30T05:21:41;11.37;;;10.23;;
13303;SDS011;6720;51.958;4.540;2024-01-30T05:24:06;14.87;;;11.70;;
13303;SDS011;6720;51.958;4.540;2024-01-30T05:26:32;13.33;;;12.03;;
13303;SDS011;6720;51.958;4.540;2024-01-30T05:28:57;12.60;;;11.07;;
13303;SDS011;6720;51.958;4.540;2024-01-30T05:31:23;13.20;;;11.67;;
13303;SDS011;6720;51.958;4.540;2024-01-30T05:33:51;14.57;;;11.70;;
13303;SDS011;6720;51.958;4.540;2024-01-30T05:36:16;14.63;;;11.77;;
13303;SDS011;6720;51.958;4.540;2024-01-30T05:38:42;14.13;;;12.13;;
13303;SDS011;6720;51.958;4.540;2024-01-30T05:41:07;13.63;;;11.67;;
13303;SDS011;6720;51.958;4.540;2024-01-30T05:43:33;13.10;;;11.80;;
13303;SDS011;6720;51.958;4.540;2024-01-30T05:45:59;13.37;;;11.97;;
13303;SDS011;6720;51.958;4.540;2024-01-30T05:48:24;13.50;;;12.10;;
13303;SDS011;6720;51.958;4.540;2024-01-30T05:50:50;13.37;;;11.97;;
13303;SDS011;6720;51.958;4.540;2024-01-30T05:53:15;14.37;;;12.37;;
13303;SDS011;6720;51.958;4.540;2024-01-30T05:55:41;13.83;;;12.20;;
13303;SDS011;6720;51.958;4.540;2024-01-30T05:58:06;14.20;;;12.70;;
13303;SDS011;6720;51.958;4.540;2024-01-30T06:00:31;13.13;;;11.80;;
13303;SDS011;6720;51.958;4.540;2024-01-30T06:02:57;12.80;;;11.50;;
13303;SDS011;6720;51.958;4.540;2024-01-30T06:05:22;13.33;;;11.90;;
13303;SDS011;6720;51.958;4.540;2024-01-30T06:07:48;13.13;;;11.83;;
13303;SDS011;6720;51.958;4.540;2024-01-30T06:10:13;12.43;;;11.13;;
13303;SDS011;6720;51.958;4.540;2024-01-30T06:12:39;13.87;;;11.43;;
13303;SDS011;6720;51.958;4.540;2024-01-30T06:15:05;13.00;;;11.70;;
13303;SDS011;6720;51.958;4.540;2024-01-30T06:17:31;12.80;;;11.50;;
13303;SDS011;6720;51.958;4.540;2024-01-30T06:19:57;12.40;;;11.20;;
13303;SDS011;6720;51.958;4.540;2024-01-30T06:22:23;15.50;;;11.70;;
13303;SDS011;6720;51.958;4.540;2024-01-30T06:24:48;14.37;;;11.77;;
13303;SDS011;6720;51.958;4.540;2024-01-30T06:27:14;12.47;;;11.27;;
13303;SDS011;6720;51.958;4.540;2024-01-30T06:29:40;13.43;;;11.73;;
13303;SDS011;6720;51.958;4.540;2024-01-30T06:32:06;13.60;;;11.47;;
13303;SDS011;6720;51.958;4.540;2024-01-30T06:34:31;13.73;;;11.67;;
13303;SDS011;6720;51.958;4.540;2024-01-30T06:36:57;13.63;;;11.63;;
13303;SDS011;6720;51.958;4.540;2024-01-30T06:39:22;13.13;;;11.70;;
13303;SDS011;6720;51.958;4.540;2024-01-30T06:41:48;12.83;;;11.53;;
13303;SDS011;6720;51.958;4.540;2024-01-30T06:44:13;16.00;;;10.77;;
13303;SDS011;6720;51.958;4.540;2024-01-30T06:46:39;12.53;;;11.23;;
13303;SDS011;6720;51.958;4.540;2024-01-30T06:49:04;13.93;;;12.17;;
13303;SDS011;6720;51.958;4.540;2024-01-30T06:51:30;14.50;;;11.93;;
13303;SDS011;6720;51.958;4.540;2024-01-30T06:53:57;15.53;;;11.17;;
13303;SDS011;6720;51.958;4.540;2024-01-30T06:56:22;13.40;;;11.80;;
13303;SDS011;6720;51.958;4.540;2024-01-30T06:58:48;11.73;;;9.93;;
13303;SDS011;6720;51.958;4.540;2024-01-30T07:01:14;13.37;;;11.50;;
13303;SDS011;6720;51.958;4.540;2024-01-30T07:03:40;17.03;;;11.87;;
13303;SDS011;6720;51.958;4.540;2024-01-30T07:06:08;16.17;;;11.50;;
13303;SDS011;6720;51.958;4.540;2024-01-30T07:08:36;12.50;;;11.27;;
13303;SDS011;6720;51.958;4.540;2024-01-30T07:11:02;14.20;;;11.63;;
13303;SDS011;6720;51.958;4.540;2024-01-30T07:13:27;13.83;;;10.93;;
13303;SDS011;6720;51.958;4.540;2024-01-30T07:15:53;13.10;;;11.40;;
13303;SDS011;6720;51.958;4.540;2024-01-30T07:18:19;14.17;;;11.17;;
13303;SDS011;6720;51.958;4.540;2024-01-30T07:20:44;15.23;;;10.87;;
13303;SDS011;6720;51.958;4.540;2024-01-30T07:23:14;15.43;;;11.13;;
13303;SDS011;6720;51.958;4.540;2024-01-30T07:25:44;12.13;;;10.90;;
13303;SDS011;6720;51.958;4.540;2024-01-30T07:28:10;15.17;;;11.57;;
13303;SDS011;6720;51.958;4.540;2024-01-30T07:30:36;12.90;;;10.43;;
13303;SDS011;6720;51.958;4.540;2024-01-30T07:33:02;12.53;;;10.60;;
13303;SDS011;6720;51.958;4.540;2024-01-30T07:35:27;13.77;;;11.10;;
13303;SDS011;6720;51.958;4.540;2024-01-30T07:37:53;12.93;;;10.40;;
13303;SDS011;6720;51.958;4.540;2024-01-30T07:40:18;17.10;;;11.80;;
13303;SDS011;6720;51.958;4.540;2024-01-30T07:42:44;17.37;;;11.03;;
13303;SDS011;6720;51.958;4.540;2024-01-30T07:45:09;22.53;;;15.67;;
13303;SDS011;6720;51.958;4.540;2024-01-30T07:47:35;16.37;;;11.90;;
13303;SDS011;6720;51.958;4.540;2024-01-30T07:50:00;20.73;;;15.40;;
13303;SDS011;6720;51.958;4.540;2024-01-30T07:52:26;17.93;;;12.57;;
13303;SDS011;6720;51.958;4.540;2024-01-30T07:54:51;16.13;;;12.20;;
13303;SDS011;6720;51.958;4.540;2024-01-30T07:57:17;21.87;;;14.50;;
13303;SDS011;6720;51.958;4.540;2024-01-30T07:59:45;20.10;;;14.77;;
13303;SDS011;6720;51.958;4.540;2024-01-30T08:02:13;21.60;;;14.57;;
13303;SDS011;6720;51.958;4.540;2024-01-30T08:04:39;13.27;;;10.47;;
13303;SDS011;6720;51.958;4.540;2024-01-30T08:07:04;13.33;;;10.47;;
13303;SDS011;6720;51.958;4.540;2024-01-30T08:09:29;18.67;;;14.10;;
13303;SDS011;6720;51.958;4.540;2024-01-30T08:11:55;19.00;;;13.30;;
13303;SDS011;6720;51.958;4.540;2024-01-30T08:14:20;13.17;;;11.77;;
13303;SDS011;6720;51.958;4.540;2024-01-30T08:16:46;14.17;;;11.07;;
13303;SDS011;6720;51.958;4.540;2024-01-30T08:19:11;18.47;;;13.90;;
13303;SDS011;6720;51.958;4.540;2024-01-30T08:21:37;14.50;;;11.47;;
13303;SDS011;6720;51.958;4.540;2024-01-30T08:24:03;20.23;;;14.53;;
13303;SDS011;6720;51.958;4.540;2024-01-30T08:26:32;18.53;;;13.10;;
13303;SDS011;6720;51.958;4.540;2024-01-30T08:28:57;16.37;;;12.50;;
13303;SDS011;6720;51.958;4.540;2024-01-30T08:31:23;19.93;;;14.90;;
13303;SDS011;6720;51.958;4.540;2024-01-30T08:33:48;19.27;;;12.50;;
13303;SDS011;6720;51.958;4.540;2024-01-30T08:36:14;21.70;;;16.37;;
13303;SDS011;6720;51.958;4.540;2024-01-30T08:38:40;19.67;;;15.27;;
13303;SDS011;6720;51.958;4.540;2024-01-30T08:41:06;26.97;;;19.60;;
13303;SDS011;6720;51.958;4.540;2024-01-30T08:43:32;12.33;;;9.97;;
13303;SDS011;6720;51.958;4.540;2024-01-30T08:46:00;11.40;;;9.77;;
13303;SDS011;6720;51.958;4.540;2024-01-30T08:48:26;14.03;;;10.53;;
13303;SDS011;6720;51.958;4.540;2024-01-30T08:50:52;12.33;;;11.00;;
13303;SDS011;6720;51.958;4.540;2024-01-30T08:53:17;10.83;;;9.77;;
13303;SDS011;6720;51.958;4.540;2024-01-30T08:55:43;12.17;;;10.07;;
13303;SDS011;6720;51.958;4.540;2024-01-30T08:58:09;15.07;;;10.73;;
13303;SDS011;6720;51.958;4.540;2024-01-30T09:00:34;14.57;;;10.43;;
13303;SDS011;6720;51.958;4.540;2024-01-30T09:03:00;14.13;;;11.27;;
13303;SDS011;6720;51.958;4.540;2024-01-30T09:05:25;13.07;;;10.87;;
13303;SDS011;6720;51.958;4.540;2024-01-30T09:07:50;16.83;;;10.93;;
13303;SDS011;6720;51.958;4.540;2024-01-30T09:10:18;14.30;;;11.73;;
13303;SDS011;6720;51.958;4.540;2024-01-30T09:12:50;14.20;;;10.70;;
13303;SDS011;6720;51.958;4.540;2024-01-30T09:15:15;15.03;;;10.80;;
13303;SDS011;6720;51.958;4.540;2024-01-30T09:17:40;14.53;;;11.03;;
13303;SDS011;6720;51.958;4.540;2024-01-30T09:20:06;14.80;;;11.87;;
13303;SDS011;6720;51.958;4.540;2024-01-30T09:22:32;17.13;;;11.67;;
13303;SDS011;6720;51.958;4.540;2024-01-30T09:24:57;17.83;;;12.30;;
13303;SDS011;6720;51.958;4.540;2024-01-30T09:27:23;15.83;;;11.67;;
13303;SDS011;6720;51.958;4.540;2024-01-30T09:29:48;14.00;;;11.83;;
13303;SDS011;6720;51.958;4.540;2024-01-30T09:32:14;15.90;;;11.17;;
13303;SDS011;6720;51.958;4.540;2024-01-30T09:34:39;13.73;;;11.30;;
13303;SDS011;6720;51.958;4.540;2024-01-30T09:37:05;16.17;;;11.80;;
13303;SDS011;6720;51.958;4.540;2024-01-30T09:39:30;13.30;;;11.07;;
13303;SDS011;6720;51.958;4.540;2024-01-30T09:42:07;15.23;;;11.10;;
13303;SDS011;6720;51.958;4.540;2024-01-30T09:44:35;14.20;;;11.77;;
13303;SDS011;6720;51.958;4.540;2024-01-30T09:47:03;12.20;;;9.90;;
13303;SDS011;6720;51.958;4.540;2024-01-30T09:49:34;14.80;;;10.57;;
13303;SDS011;6720;51.958;4.540;2024-01-30T09:52:01;13.90;;;11.20;;
13303;SDS011;6720;51.958;4.540;2024-01-30T09:54:30;13.77;;;10.67;;
13303;SDS011;6720;51.958;4.540;2024-01-30T09:56:56;14.10;;;11.10;;
13303;SDS011;6720;51.958;4.540;2024-01-30T09:59:22;13.93;;;9.47;;
13303;SDS011;6720;51.958;4.540;2024-01-30T10:01:50;12.23;;;8.63;;
13303;SDS011;6720;51.958;4.540;2024-01-30T10:04:18;11.03;;;6.90;;
13303;SDS011;6720;51.958;4.540;2024-01-30T10:06:43;12.03;;;6.00;;
13303;SDS011;6720;51.958;4.540;2024-01-30T10:09:12;10.57;;;5.50;;
13303;SDS011;6720;51.958;4.540;2024-01-30T10:11:38;9.57;;;5.80;;
13303;SDS011;6720;51.958;4.540;2024-01-30T10:14:03;10.43;;;6.50;;
13303;SDS011;6720;51.958;4.540;2024-01-30T10:16:29;8.70;;;5.60;;
13303;SDS011;6720;51.958;4.540;2024-01-30T10:18:54;11.53;;;5.80;;
13303;SDS011;6720;51.958;4.540;2024-01-30T10:21:20;11.40;;;5.17;;
13303;SDS011;6720;51.958;4.540;2024-01-30T10:23:46;10.93;;;4.97;;
13303;SDS011;6720;51.958;4.540;2024-01-30T10:26:11;11.97;;;4.97;;
13303;SDS011;6720;51.958;4.540;2024-01-30T10:28:37;8.27;;;4.80;;
13303;SDS011;6720;51.958;4.540;2024-01-30T10:31:02;8.57;;;4.33;;
13303;SDS011;6720;51.958;4.540;2024-01-30T10:33:31;6.87;;;3.70;;
13303;SDS011;6720;51.958;4.540;2024-01-30T10:36:00;5.10;;;3.40;;
13303;SDS011;6720;51.958;4.540;2024-01-30T10:38:29;5.93;;;3.90;;
13303;SDS011;6720;51.958;4.540;2024-01-30T10:40:59;4.87;;;4.37;;
13303;SDS011;6720;51.958;4.540;2024-01-30T10:43:34;9.83;;;5.70;;
13303;SDS011;6720;51.958;4.540;2024-01-30T10:48:37;9.97;;;6.17;;
13303;SDS011;6720;51.958;4.540;2024-01-30T10:51:13;6.80;;;5.20;;
13303;SDS011;6720;51.958;4.540;2024-01-30T10:53:39;6.17;;;4.23;;
13303;SDS011;6720;51.958;4.540;2024-01-30T10:56:06;5.33;;;2.80;;
13303;SDS011;6720;51.958;4.540;2024-01-30T10:58:33;3.57;;;2.80;;
13303;SDS011;6720;51.958;4.540;2024-01-30T11:00:59;4.00;;;2.80;;
13303;SDS011;6720;51.958;4.540;2024-01-30T11:03:28;6.83;;;2.93;;
13303;SDS011;6720;51.958;4.540;2024-01-30T11:05:58;5.57;;;2.47;;
13303;SDS011;6720;51.958;4.540;2024-01-30T11:08:25;10.00;;;3.33;;
13303;SDS011;6720;51.958;4.540;2024-01-30T11:10:57;6.30;;;3.30;;
13303;SDS011;6720;51.958;4.540;2024-01-30T11:13:26;8.17;;;2.90;;
13303;SDS011;6720;51.958;4.540;2024-01-30T11:15:55;6.10;;;2.67;;
13303;SDS011;6720;51.958;4.540;2024-01-30T11:18:25;8.07;;;3.43;;
13303;SDS011;6720;51.958;4.540;2024-01-30T11:20:55;6.53;;;2.43;;
13303;SDS011;6720;51.958;4.540;2024-01-30T11:23:22;7.03;;;2.87;;
13303;SDS011;6720;51.958;4.540;2024-01-30T11:25:47;6.27;;;2.73;;
13303;SDS011;6720;51.958;4.540;2024-01-30T11:28:14;6.63;;;2.57;;
13303;SDS011;6720;51.958;4.540;2024-01-30T11:30:40;6.73;;;2.73;;
13303;SDS011;6720;51.958;4.540;2024-01-30T11:33:06;6.13;;;2.13;;
13303;SDS011;6720;51.958;4.540;2024-01-30T11:35:37;4.80;;;2.00;;
13303;SDS011;6720;51.958;4.540;2024-01-30T11:38:04;7.67;;;2.47;;
13303;SDS011;6720;51.958;4.540;2024-01-30T11:40:31;12.83;;;2.87;;
13303;SDS011;6720;51.958;4.540;2024-01-30T11:43:00;7.50;;;2.33;;
13303;SDS011;6720;51.958;4.540;2024-01-30T11:45:28;7.53;;;2.60;;
13303;SDS011;6720;51.958;4.540;2024-01-30T11:47:53;4.93;;;2.63;;
13303;SDS011;6720;51.958;4.540;2024-01-30T11:50:19;4.13;;;2.33;;
13303;SDS011;6720;51.958;4.540;2024-01-30T11:52:45;5.87;;;2.57;;
13303;SDS011;6720;51.958;4.540;2024-01-30T11:55:11;6.93;;;2.73;;
13303;SDS011;6720;51.958;4.540;2024-01-30T11:57:38;6.43;;;2.20;;
13303;SDS011;6720;51.958;4.540;2024-01-30T12:00:04;4.37;;;2.37;;
13303;SDS011;6720;51.958;4.540;2024-01-30T12:02:35;6.77;;;2.73;;
13303;SDS011;6720;51.958;4.540;2024-01-30T12:05:05;6.30;;;2.20;;
13303;SDS011;6720;51.958;4.540;2024-01-30T12:07:31;8.13;;;2.70;;
13303;SDS011;6720;51.958;4.540;2024-01-30T12:09:57;6.13;;;2.23;;
13303;SDS011;6720;51.958;4.540;2024-01-30T12:12:23;5.50;;;2.40;;
13303;SDS011;6720;51.958;4.540;2024-01-30T12:14:50;8.30;;;2.20;;
13303;SDS011;6720;51.958;4.540;2024-01-30T12:17:51;6.20;;;2.40;;
13303;SDS011;6720;51.958;4.540;2024-01-30T12:20:10;8.20;;;2.57;;
13303;SDS011;6720;51.958;4.540;2024-01-30T12:22:41;5.57;;;2.47;;
13303;SDS011;6720;51.958;4.540;2024-01-30T12:25:08;8.57;;;2.43;;
13303;SDS011;6720;51.958;4.540;2024-01-30T12:27:34;11.27;;;3.67;;
13303;SDS011;6720;51.958;4.540;2024-01-30T12:30:04;13.87;;;3.10;;
13303;SDS011;6720;51.958;4.540;2024-01-30T12:32:33;8.77;;;2.93;;
13303;SDS011;6720;51.958;4.540;2024-01-30T12:35:12;8.00;;;3.30;;
13303;SDS011;6720;51.958;4.540;2024-01-30T12:37:39;11.30;;;3.20;;
13303;SDS011;6720;51.958;4.540;2024-01-30T12:40:06;9.13;;;3.00;;
13303;SDS011;6720;51.958;4.540;2024-01-30T12:42:32;11.83;;;5.20;;
13303;SDS011;6720;51.958;4.540;2024-01-30T12:44:58;10.97;;;3.10;;
13303;SDS011;6720;51.958;4.540;2024-01-30T12:47:24;9.90;;;2.80;;
13303;SDS011;6720;51.958;4.540;2024-01-30T12:49:50;9.27;;;4.03;;
13303;SDS011;6720;51.958;4.540;2024-01-30T12:52:19;8.27;;;3.70;;
13303;SDS011;6720;51.958;4.540;2024-01-30T12:54:45;8.27;;;3.20;;
13303;SDS011;6720;51.958;4.540;2024-01-30T12:57:11;11.00;;;3.53;;
13303;SDS011;6720;51.958;4.540;2024-01-30T12:59:36;8.70;;;3.87;;
13303;SDS011;6720;51.958;4.540;2024-01-30T13:02:02;11.97;;;4.13;;
13303;SDS011;6720;51.958;4.540;2024-01-30T13:04:28;11.27;;;3.23;;
13303;SDS011;6720;51.958;4.540;2024-01-30T13:06:53;9.37;;;3.47;;
13303;SDS011;6720;51.958;4.540;2024-01-30T13:09:19;7.70;;;3.07;;
13303;SDS011;6720;51.958;4.540;2024-01-30T13:11:45;8.63;;;2.67;;
13303;SDS011;6720;51.958;4.540;2024-01-30T13:14:10;6.63;;;3.03;;
13303;SDS011;6720;51.958;4.540;2024-01-30T13:16:36;8.80;;;2.90;;
13303;SDS011;6720;51.958;4.540;2024-01-30T13:19:01;6.83;;;2.60;;
13303;SDS011;6720;51.958;4.540;2024-01-30T13:21:27;8.43;;;3.60;;
13303;SDS011;6720;51.958;4.540;2024-01-30T13:23:53;7.37;;;3.17;;
13303;SDS011;6720;51.958;4.540;2024-01-30T13:26:20;7.47;;;2.83;;
13303;SDS011;6720;51.958;4.540;2024-01-30T13:28:45;8.73;;;3.00;;
13303;SDS011;6720;51.958;4.540;2024-01-30T13:31:11;7.00;;;3.30;;
13303;SDS011;6720;51.958;4.540;2024-01-30T13:33:37;6.67;;;2.97;;
13303;SDS011;6720;51.958;4.540;2024-01-30T13:36:02;9.27;;;3.17;;
13303;SDS011;6720;51.958;4.540;2024-01-30T13:38:28;6.43;;;2.90;;
13303;SDS011;6720;51.958;4.540;2024-01-30T13:40:53;8.20;;;3.10;;
13303;SDS011;6720;51.958;4.540;2024-01-30T13:43:19;8.43;;;3.40;;
13303;SDS011;6720;51.958;4.540;2024-01-30T13:45:44;7.07;;;3.40;;
13303;SDS011;6720;51.958;4.540;2024-01-30T13:48:11;9.27;;;3.90;;
13303;SDS011;6720;51.958;4.540;2024-01-30T13:50:36;9.10;;;3.90;;
13303;SDS011;6720;51.958;4.540;2024-01-30T13:53:02;6.73;;;4.20;;
13303;SDS011;6720;51.958;4.540;2024-01-30T13:55:29;6.43;;;4.40;;
13303;SDS011;6720;51.958;4.540;2024-01-30T13:57:54;9.37;;;4.23;;
13303;SDS011;6720;51.958;4.540;2024-01-30T14:00:21;9.10;;;4.50;;
13303;SDS011;6720;51.958;4.540;2024-01-30T14:02:47;8.40;;;3.90;;
13303;SDS011;6720;51.958;4.540;2024-01-30T14:05:12;10.27;;;4.07;;
13303;SDS011;6720;51.958;4.540;2024-01-30T14:07:39;7.73;;;4.07;;
13303;SDS011;6720;51.958;4.540;2024-01-30T14:10:05;10.00;;;5.60;;
13303;SDS011;6720;51.958;4.540;2024-01-30T14:12:31;10.17;;;5.23;;
13303;SDS011;6720;51.958;4.540;2024-01-30T14:14:56;8.57;;;5.03;;
13303;SDS011;6720;51.958;4.540;2024-01-30T14:17:22;9.70;;;4.80;;
13303;SDS011;6720;51.958;4.540;2024-01-30T14:19:47;11.90;;;5.00;;
13303;SDS011;6720;51.958;4.540;2024-01-30T14:22:12;10.33;;;4.90;;
13303;SDS011;6720;51.958;4.540;2024-01-30T14:24:38;13.07;;;5.23;;
13303;SDS011;6720;51.958;4.540;2024-01-30T14:27:04;9.47;;;4.77;;
13303;SDS011;6720;51.958;4.540;2024-01-30T14:29:29;5.70;;;4.53;;
13303;SDS011;6720;51.958;4.540;2024-01-30T14:31:54;11.10;;;4.50;;
13303;SDS011;6720;51.958;4.540;2024-01-30T14:34:21;23.50;;;14.43;;
13303;SDS011;6720;51.958;4.540;2024-01-30T14:36:47;9.13;;;5.57;;
13303;SDS011;6720;51.958;4.540;2024-01-30T14:39:14;12.23;;;7.30;;
13303;SDS011;6720;51.958;4.540;2024-01-30T14:41:39;7.50;;;5.10;;
13303;SDS011;6720;51.958;4.540;2024-01-30T14:44:05;9.73;;;5.40;;
13303;SDS011;6720;51.958;4.540;2024-01-30T14:46:30;7.37;;;5.63;;
13303;SDS011;6720;51.958;4.540;2024-01-30T14:48:56;7.93;;;4.80;;
13303;SDS011;6720;51.958;4.540;2024-01-30T14:51:22;6.47;;;4.80;;